Aeroporto :
LOGIN :

Iscrizione | Disclaimer

   EN    FR    IT 

 










Sommario :    VFR   VFR Marginale   IFR   IFR Intensivo   IFR Molto Intensivo
Visibilità : 
Base nubi : 
>= 8 km
>= 3000ft
5 / 8 km
1000 / 3000 ft
1500m / 5 km
500 / 1000 ft
800 / 1500m
200 / 500 ft
< 800m
< 200 ft
Simboli :   Temporali  Nebbia  Neve Forte  Precipitazioni Forti  Vento > 20 kt
SIGMETs :   Varie  Temporali  Ghiacco  Turbolenza  Onda orograficha  Ceneri Vulcaniche






- Altitudine del aeroporto : 209 ft
- Codice IATA : CLY


LFKC - Calvi

ULTIMO METAR :
  • 250230Z AUTO VRB03KT 9999 BKN100/// ///TCU 17/15 Q1011 TEMPO SHRA BKN014 SCT030CB

METARs OBSOLETI :
  • 250200Z AUTO 21005KT 9999 FEW017 BKN100 17/15 Q1011
  • 250130Z AUTO 17006KT 9999 SCT016 SCT070 16/15 Q1012
  • 250100Z AUTO 17004KT 9999 FEW023 16/15 Q1012
  • 250030Z AUTO 15003KT 9999 FEW022 17/15 Q1012
  • 250000Z AUTO 23003KT 200V260 CAVOK 17/15 Q1012
  • 242330Z AUTO 16004KT 9999 //////TCU 17/16 Q1012
  • 242300Z AUTO 17005KT CAVOK 17/16 Q1012
  • 242230Z AUTO 16005KT CAVOK 17/16 Q1012
  • 242200Z AUTO 16005KT CAVOK 17/16 Q1012

TAF TAF LFKC
Valido dal 25 a 03 ore il 26 a 03 ore UTC


250200Z 2503/2603 18005KT 9999 BKN017 BKN060 TX22/2510Z TN14/2505Z
PROB40
TEMPO 2503/2506 SHRA BKN014 SCT030CB
TEMPO 2506/2517 BKN018 FEW033CB
PROB40
TEMPO 2509/2517 TS
BECMG 2510/2512 35007KT
BECMG 2520/2522 18004KT BKN014 BKN080
ATIS : +33 4 95 65 82 49



MetMap, La meteo Aeronautica in un colpo d'occhio ! - Copyright ORBIFLY Dicembre 2007 - Disclaimer

ORBIFLY MET'MAP TEAM :

Programmazione e sviluppo : Alexandra Zaïnal
Concezione : Baudouin d'Aumeries
Supporto tecnico e logistico : Manuel Goepfert
Aiuto : Marc-Olivier Méhu
Aiuto per la traduzione : Arnaldo La Scala




FONTI E CREDITI :

   NOAA